createdAt,value
2023-05-01T00:02:11.687Z,2.07
2023-05-01T00:04:38.840Z,2.00
2023-05-01T00:07:05.890Z,2.17
2023-05-01T00:09:33.224Z,1.90
2023-05-01T00:12:00.418Z,2.57
2023-05-01T00:14:27.443Z,2.47
2023-05-01T00:16:54.125Z,2.17
2023-05-01T00:19:21.350Z,2.07
2023-05-01T00:21:48.648Z,2.17
2023-05-01T00:24:16.989Z,1.80
2023-05-01T00:26:44.966Z,2.07
2023-05-01T00:29:12.210Z,2.03
2023-05-01T00:31:41.525Z,2.10
2023-05-01T00:34:08.835Z,2.33
2023-05-01T00:36:35.521Z,2.23
2023-05-01T00:39:02.864Z,2.30
2023-05-01T00:41:29.513Z,2.20
2023-05-01T00:43:57.839Z,2.07
2023-05-01T00:46:25.065Z,2.10
2023-05-01T00:48:53.393Z,1.80
2023-05-01T00:51:22.245Z,1.80
2023-05-01T00:53:49.594Z,1.93
2023-05-01T00:56:16.948Z,2.60
2023-05-01T00:58:46.857Z,2.20
2023-05-01T01:01:14.580Z,2.30
2023-05-01T01:03:41.666Z,2.47
2023-05-01T01:06:20.224Z,2.07
2023-05-01T01:09:00.391Z,2.13
2023-05-01T01:11:38.243Z,2.07
2023-05-01T01:14:17.662Z,2.10
2023-05-01T01:17:08.731Z,2.57
2023-05-01T01:19:57.383Z,2.30
2023-05-01T01:22:27.677Z,2.47
2023-05-01T01:25:24.164Z,2.60
2023-05-01T01:28:15.715Z,2.17
2023-05-01T01:31:11.965Z,2.20
2023-05-01T01:34:02.343Z,2.33
2023-05-01T01:36:59.265Z,2.57
2023-05-01T01:39:47.583Z,2.53
2023-05-01T01:42:20.476Z,1.97
2023-05-01T01:44:58.617Z,2.50
2023-05-01T01:47:31.709Z,2.60
2023-05-01T01:50:04.187Z,2.20
2023-05-01T01:52:32.753Z,1.93
2023-05-01T01:55:08.439Z,2.50
2023-05-01T01:57:37.812Z,2.10
2023-05-01T02:00:08.804Z,2.63
2023-05-01T02:02:41.088Z,2.40
2023-05-01T02:05:08.798Z,2.33
2023-05-01T02:07:39.254Z,2.67
2023-05-01T02:10:08.431Z,2.83
2023-05-01T02:12:36.497Z,2.67
2023-05-01T02:15:04.731Z,2.17
2023-05-01T02:17:32.972Z,2.83
2023-05-01T02:20:00.428Z,2.40
2023-05-01T02:22:28.353Z,2.70
2023-05-01T02:24:57.171Z,2.90
2023-05-01T02:27:35.810Z,2.47
2023-05-01T02:30:03.304Z,2.90
2023-05-01T02:32:31.794Z,2.33
2023-05-01T02:35:00.044Z,2.27
2023-05-01T02:37:28.006Z,2.90
2023-05-01T02:39:55.267Z,2.60
2023-05-01T02:42:24.296Z,2.47
2023-05-01T02:44:57.564Z,2.93
2023-05-01T02:47:27.188Z,2.57
2023-05-01T02:49:55.108Z,2.20
2023-05-01T02:52:23.013Z,2.60
2023-05-01T02:54:56.315Z,3.10
2023-05-01T02:57:23.688Z,2.80
2023-05-01T02:59:50.759Z,2.80
2023-05-01T03:02:17.794Z,3.00
2023-05-01T03:04:45.038Z,2.83
2023-05-01T03:07:12.430Z,3.43
2023-05-01T03:09:39.546Z,2.40
2023-05-01T03:12:06.615Z,2.60
2023-05-01T03:14:33.736Z,2.40
2023-05-01T03:17:01.069Z,2.50
2023-05-01T03:19:28.170Z,2.73
2023-05-01T03:21:55.296Z,2.47
2023-05-01T03:24:22.324Z,2.50
2023-05-01T03:26:49.409Z,2.60
2023-05-01T03:29:16.529Z,2.87
2023-05-01T03:31:43.969Z,2.20
2023-05-01T03:34:11.727Z,2.50
2023-05-01T03:36:38.952Z,2.80
2023-05-01T03:39:08.488Z,2.43
2023-05-01T03:42:13.615Z,2.70
2023-05-01T03:44:42.104Z,2.83
2023-05-01T03:47:10.219Z,2.50
2023-05-01T03:49:43.504Z,2.60
2023-05-01T03:52:12.521Z,2.40
2023-05-01T03:54:39.691Z,2.90
2023-05-01T03:57:27.004Z,2.30
2023-05-01T03:59:54.954Z,2.73
2023-05-01T04:02:22.472Z,2.53
2023-05-01T04:04:49.690Z,2.63
2023-05-01T04:07:16.860Z,2.93
2023-05-01T04:09:48.242Z,3.30
2023-05-01T04:12:15.353Z,2.60
2023-05-01T04:14:43.268Z,2.90
2023-05-01T04:17:10.715Z,2.50
2023-05-01T04:19:38.121Z,3.17
2023-05-01T04:22:05.617Z,2.60
2023-05-01T04:24:34.149Z,2.90
2023-05-01T04:27:01.255Z,3.60
2023-05-01T04:29:28.261Z,2.27
2023-05-01T04:31:55.540Z,2.63
2023-05-01T04:34:22.796Z,2.40
2023-05-01T04:36:51.761Z,2.83
2023-05-01T04:39:19.298Z,2.53
2023-05-01T04:41:46.480Z,3.20
2023-05-01T04:44:13.546Z,3.30
2023-05-01T04:46:40.249Z,2.57
2023-05-01T04:49:07.783Z,3.43
2023-05-01T04:51:34.391Z,2.60
2023-05-01T04:54:02.371Z,2.60
2023-05-01T04:56:29.471Z,2.37
2023-05-01T04:59:00.631Z,2.20
2023-05-01T05:01:28.418Z,2.63
2023-05-01T05:03:55.970Z,2.47
2023-05-01T05:06:23.236Z,2.90
2023-05-01T05:08:52.027Z,2.63
2023-05-01T05:11:19.478Z,2.37
2023-05-01T05:14:08.520Z,2.90
2023-05-01T05:16:35.954Z,2.47
2023-05-01T05:19:03.050Z,2.50
2023-05-01T05:21:35.380Z,2.20
2023-05-01T05:24:03.545Z,2.63
2023-05-01T05:26:31.036Z,2.23
2023-05-01T05:29:01.956Z,2.30
2023-05-01T05:31:28.733Z,2.80
2023-05-01T05:33:55.790Z,2.10
2023-05-01T05:36:24.808Z,2.10
2023-05-01T05:38:51.906Z,2.60
2023-05-01T05:41:20.225Z,3.03
2023-05-01T05:43:49.224Z,2.73
2023-05-01T05:46:16.307Z,2.60
2023-05-01T05:48:43.484Z,3.33
2023-05-01T05:51:10.855Z,2.47
2023-05-01T05:53:37.945Z,2.40
2023-05-01T05:56:05.480Z,2.70
2023-05-01T05:58:32.967Z,2.33
2023-05-01T06:01:00.091Z,2.50
2023-05-01T06:03:27.493Z,2.93
2023-05-01T06:05:58.879Z,2.30
2023-05-01T06:08:26.023Z,2.43
2023-05-01T06:10:53.218Z,2.70
2023-05-01T06:13:20.508Z,2.90
2023-05-01T06:15:49.545Z,2.37
2023-05-01T06:18:16.896Z,2.17
2023-05-01T06:20:44.318Z,2.77
2023-05-01T06:23:13.537Z,3.00
2023-05-01T06:25:48.699Z,2.40
2023-05-01T06:28:15.926Z,2.10
2023-05-01T06:30:42.612Z,2.80
2023-05-01T06:33:10.784Z,2.83
2023-05-01T06:35:41.851Z,2.30
2023-05-01T06:38:08.947Z,2.73
2023-05-01T06:40:36.173Z,2.23
2023-05-01T06:43:03.636Z,2.80
2023-05-01T06:45:30.320Z,2.67
2023-05-01T06:47:57.465Z,2.40
2023-05-01T06:50:24.103Z,2.30
2023-05-01T06:52:51.154Z,2.10
2023-05-01T06:55:18.230Z,2.10
2023-05-01T06:57:45.313Z,2.23
2023-05-01T07:00:12.640Z,2.03
2023-05-01T07:02:40.689Z,2.17
2023-05-01T07:05:08.109Z,2.33
2023-05-01T07:07:37.384Z,2.60
2023-05-01T07:10:04.846Z,2.50
2023-05-01T07:12:31.490Z,2.50
2023-05-01T07:14:58.536Z,2.30
2023-05-01T07:17:25.896Z,2.50
2023-05-01T07:19:53.170Z,2.00
2023-05-01T07:22:20.615Z,2.67
2023-05-01T07:24:47.660Z,2.20
2023-05-01T07:27:14.964Z,3.07
2023-05-01T07:29:42.018Z,2.40
2023-05-01T07:32:09.131Z,2.30
2023-05-01T07:34:36.261Z,2.20
2023-05-01T07:37:04.730Z,2.23
2023-05-01T07:39:31.412Z,2.20
2023-05-01T07:41:58.495Z,3.00
2023-05-01T07:44:25.543Z,2.10
2023-05-01T07:46:52.592Z,2.10
2023-05-01T07:49:19.637Z,2.80
2023-05-01T07:51:46.777Z,2.97
2023-05-01T07:54:15.701Z,2.57
2023-05-01T07:56:42.846Z,2.47
2023-05-01T07:59:10.060Z,1.90
2023-05-01T08:01:37.351Z,2.60
2023-05-01T08:04:04.181Z,2.23
2023-05-01T08:06:31.904Z,2.43
2023-05-01T08:08:59.329Z,2.57
2023-05-01T08:11:26.744Z,2.50
2023-05-01T08:13:53.756Z,2.30
2023-05-01T08:16:22.110Z,2.10
2023-05-01T08:18:49.402Z,2.50
2023-05-01T08:21:16.095Z,1.97
2023-05-01T08:23:43.122Z,2.40
2023-05-01T08:26:10.131Z,2.70
2023-05-01T08:28:37.598Z,2.80
2023-05-01T08:31:04.710Z,2.30
2023-05-01T08:33:31.994Z,2.13
2023-05-01T08:35:59.256Z,1.90
2023-05-01T08:38:26.401Z,2.40
2023-05-01T08:40:54.221Z,2.27
2023-05-01T08:43:21.345Z,2.17
2023-05-01T08:45:48.927Z,1.70
2023-05-01T08:48:18.498Z,2.20
2023-05-01T08:50:46.708Z,1.87
2023-05-01T08:53:15.972Z,1.97
2023-05-01T08:55:47.511Z,2.00
2023-05-01T08:58:15.119Z,2.00
2023-05-01T09:00:42.557Z,1.83
2023-05-01T09:03:12.877Z,1.80
2023-05-01T09:05:40.385Z,2.00
2023-05-01T09:08:07.100Z,2.50
2023-05-01T09:10:37.024Z,2.50
2023-05-01T09:13:07.051Z,1.80
2023-05-01T09:15:33.936Z,2.00
2023-05-01T09:18:03.666Z,2.07
2023-05-01T09:20:31.857Z,1.80
2023-05-01T09:22:59.061Z,1.73
2023-05-01T09:25:25.843Z,1.97
2023-05-01T09:27:52.981Z,2.30
2023-05-01T09:30:33.813Z,2.20
2023-05-01T09:33:14.785Z,2.43
2023-05-01T09:35:51.472Z,1.73
2023-05-01T09:38:29.165Z,1.70
2023-05-01T09:41:04.626Z,1.70
2023-05-01T09:43:31.814Z,1.90
2023-05-01T09:46:09.973Z,1.40
2023-05-01T09:48:37.992Z,1.30
2023-05-01T09:51:22.116Z,1.33
2023-05-01T09:53:49.561Z,1.60
2023-05-01T09:56:17.265Z,1.50
2023-05-01T09:58:44.573Z,1.67
2023-05-01T10:01:11.739Z,1.83
2023-05-01T10:03:39.190Z,1.30
2023-05-01T10:06:07.139Z,1.73
2023-05-01T10:08:50.871Z,2.13
2023-05-01T10:11:17.985Z,1.17
2023-05-01T10:13:45.092Z,1.53
2023-05-01T10:16:44.515Z,1.60
2023-05-01T10:19:11.781Z,1.40
2023-05-01T10:21:39.258Z,1.60
2023-05-01T10:24:07.699Z,1.60
2023-05-01T10:26:34.930Z,1.80
2023-05-01T10:29:03.162Z,1.90
2023-05-01T10:31:32.572Z,1.50
2023-05-01T10:34:02.977Z,1.60
2023-05-01T10:36:47.658Z,1.47
2023-05-01T10:39:32.269Z,1.30
2023-05-01T10:41:59.444Z,1.60
2023-05-01T10:44:26.925Z,1.50
2023-05-01T10:46:54.800Z,1.10
2023-05-01T10:49:22.078Z,0.90
2023-05-01T10:52:04.000Z,1.10
2023-05-01T10:54:32.923Z,0.63
2023-05-01T10:57:01.988Z,1.47
2023-05-01T11:00:01.737Z,1.30
2023-05-01T11:02:30.304Z,1.57
2023-05-01T11:04:57.645Z,1.90
2023-05-01T11:07:26.004Z,1.33
2023-05-01T11:09:55.526Z,1.27
2023-05-01T11:12:48.918Z,1.47
2023-05-01T11:15:32.866Z,1.00
2023-05-01T11:18:01.894Z,1.10
2023-05-01T11:20:29.145Z,0.90
2023-05-01T11:22:58.772Z,0.83
2023-05-01T11:25:27.807Z,0.80
2023-05-01T11:27:59.924Z,1.00
2023-05-01T11:30:26.659Z,1.00
2023-05-01T11:32:53.396Z,0.80
2023-05-01T11:35:22.537Z,1.10
2023-05-01T11:37:51.202Z,0.70
2023-05-01T11:40:27.436Z,0.70
2023-05-01T11:43:02.166Z,0.90
2023-05-01T11:45:30.101Z,1.00
2023-05-01T11:47:57.448Z,0.80
2023-05-01T11:50:32.671Z,1.00
2023-05-01T11:52:59.274Z,0.70
2023-05-01T11:55:33.509Z,0.67
2023-05-01T11:58:00.745Z,0.70
2023-05-01T12:00:37.252Z,0.60
2023-05-01T12:03:12.171Z,1.00
2023-05-01T12:05:42.298Z,0.50
2023-05-01T12:08:19.600Z,0.80
2023-05-01T12:10:56.056Z,0.60
2023-05-01T12:13:23.461Z,1.00
2023-05-01T12:15:52.812Z,0.90
2023-05-01T12:18:21.478Z,0.80
2023-05-01T12:20:51.912Z,0.80
2023-05-01T12:23:20.114Z,0.63
2023-05-01T12:25:46.979Z,0.90
2023-05-01T12:28:16.855Z,0.70
2023-05-01T12:30:45.718Z,0.90
2023-05-01T12:33:16.610Z,0.80
2023-05-01T12:35:46.411Z,0.90
2023-05-01T12:38:17.999Z,0.80
2023-05-01T12:40:59.329Z,0.80
2023-05-01T12:43:34.042Z,0.70
2023-05-01T12:46:01.877Z,0.93
2023-05-01T12:48:30.081Z,0.97
2023-05-01T12:50:57.332Z,1.00
2023-05-01T12:53:25.722Z,0.90
2023-05-01T12:55:55.478Z,0.80
2023-05-01T12:58:23.505Z,0.80
2023-05-01T13:00:55.247Z,1.10
2023-05-01T13:03:26.859Z,0.90
2023-05-01T13:06:03.922Z,0.80
2023-05-01T13:08:32.639Z,0.80
2023-05-01T13:11:02.777Z,0.60
2023-05-01T13:13:35.879Z,0.90
2023-05-01T13:16:12.291Z,0.90
2023-05-01T13:18:50.170Z,0.70
2023-05-01T13:21:21.389Z,0.70
2023-05-01T13:24:00.299Z,0.40
2023-05-01T13:26:29.102Z,0.80
2023-05-01T13:28:57.175Z,0.63
2023-05-01T13:31:24.307Z,0.57
2023-05-01T13:33:53.375Z,0.67
2023-05-01T13:36:25.977Z,0.60
2023-05-01T13:38:55.949Z,0.80
2023-05-01T13:41:27.313Z,0.80
2023-05-01T13:43:55.988Z,0.90
2023-05-01T13:46:24.720Z,0.80
2023-05-01T13:48:51.900Z,0.70
2023-05-01T13:51:23.399Z,0.73
2023-05-01T13:53:50.569Z,0.40
2023-05-01T13:56:17.678Z,0.80
2023-05-01T13:58:45.111Z,0.80
2023-05-01T14:01:20.836Z,0.60
2023-05-01T14:03:48.714Z,0.90
2023-05-01T14:06:17.427Z,0.70
2023-05-01T14:08:45.244Z,0.70
2023-05-01T14:11:12.939Z,0.70
2023-05-01T14:13:44.779Z,0.70
2023-05-01T14:16:26.295Z,0.60
2023-05-01T14:18:56.557Z,0.80
2023-05-01T14:21:27.096Z,0.60
2023-05-01T14:23:54.947Z,0.80
2023-05-01T14:26:23.823Z,0.73
2023-05-01T14:28:50.993Z,1.10
2023-05-01T14:31:25.354Z,0.80
2023-05-01T14:34:01.356Z,0.70
2023-05-01T14:36:31.497Z,0.50
2023-05-01T14:38:59.372Z,0.90
2023-05-01T14:41:26.638Z,1.00
2023-05-01T14:43:53.775Z,0.70
2023-05-01T14:46:30.106Z,0.80
2023-05-01T14:48:58.688Z,1.03
2023-05-01T14:51:25.989Z,3.63
2023-05-01T14:53:53.122Z,1.10
2023-05-01T14:56:19.873Z,0.63
2023-05-01T14:58:47.106Z,0.90
2023-05-01T15:01:14.861Z,0.70
2023-05-01T15:03:42.164Z,0.80
2023-05-01T15:06:09.490Z,0.67
2023-05-01T15:08:37.900Z,0.60
2023-05-01T15:11:05.081Z,1.30
2023-05-01T15:13:31.846Z,0.97
2023-05-01T15:15:58.761Z,1.07
2023-05-01T15:18:26.245Z,0.80
2023-05-01T15:20:53.319Z,0.80
2023-05-01T15:23:20.516Z,0.70
2023-05-01T15:25:50.402Z,0.70
2023-05-01T15:28:17.474Z,0.83
2023-05-01T15:30:46.374Z,0.80
2023-05-01T15:33:15.535Z,1.37
2023-05-01T15:35:45.646Z,1.00
2023-05-01T15:38:12.456Z,0.77
2023-05-01T15:40:39.516Z,0.90
2023-05-01T15:43:06.604Z,0.70
2023-05-01T15:45:33.517Z,0.80
2023-05-01T15:48:01.099Z,1.03
2023-05-01T15:50:28.014Z,0.70
2023-05-01T15:52:55.046Z,0.73
2023-05-01T15:55:22.101Z,1.00
2023-05-01T15:57:49.237Z,0.80
2023-05-01T16:00:17.195Z,0.70
2023-05-01T16:02:44.656Z,0.80
2023-05-01T16:05:14.074Z,0.80
2023-05-01T16:07:41.100Z,0.60
2023-05-01T16:10:09.080Z,1.00
2023-05-01T16:12:35.884Z,0.80
2023-05-01T16:15:03.473Z,1.20
2023-05-01T16:17:32.995Z,0.90
2023-05-01T16:20:01.566Z,0.97
2023-05-01T16:22:28.582Z,0.80
2023-05-01T16:24:55.735Z,1.03
2023-05-01T16:27:22.449Z,1.00
2023-05-01T16:29:49.482Z,1.10
2023-05-01T16:32:17.109Z,1.23
2023-05-01T16:34:44.256Z,1.20
2023-05-01T16:37:13.581Z,0.90
2023-05-01T16:39:40.208Z,1.23
2023-05-01T16:42:07.095Z,1.20
2023-05-01T16:44:36.382Z,0.97
2023-05-01T16:47:03.547Z,0.80
2023-05-01T16:49:30.502Z,1.00
2023-05-01T16:51:58.595Z,1.03
2023-05-01T16:54:31.976Z,0.87
2023-05-01T16:56:59.372Z,1.17
2023-05-01T16:59:28.045Z,0.90
2023-05-01T17:01:55.322Z,0.90
2023-05-01T17:04:22.556Z,0.90
2023-05-01T17:06:49.860Z,1.30
2023-05-01T17:09:17.121Z,1.17
2023-05-01T17:11:56.465Z,0.90
2023-05-01T17:14:23.899Z,0.93
2023-05-01T17:16:51.406Z,1.00
2023-05-01T17:19:18.126Z,0.80
2023-05-01T17:21:45.229Z,1.20
2023-05-01T17:24:13.805Z,0.90
2023-05-01T17:26:40.859Z,1.20
2023-05-01T17:29:07.482Z,1.00
2023-05-01T17:31:34.464Z,0.90
2023-05-01T17:34:01.530Z,0.83
2023-05-01T17:36:29.111Z,1.23
2023-05-01T17:38:56.726Z,0.80
2023-05-01T17:41:24.636Z,1.13
2023-05-01T17:43:51.713Z,1.00
2023-05-01T17:46:18.511Z,0.93
2023-05-01T17:48:45.604Z,0.90
2023-05-01T17:51:15.720Z,0.90
2023-05-01T17:53:42.617Z,1.10
2023-05-01T17:56:09.754Z,1.23
2023-05-01T17:58:36.363Z,1.20
2023-05-01T18:01:04.392Z,1.50
2023-05-01T18:03:34.795Z,1.83
2023-05-01T18:06:02.582Z,1.60
2023-05-01T18:08:29.712Z,1.60
2023-05-01T18:10:57.496Z,1.73
2023-05-01T18:13:27.935Z,1.10
2023-05-01T18:15:55.919Z,0.87
2023-05-01T18:18:22.905Z,0.93
2023-05-01T18:20:50.006Z,0.80
2023-05-01T18:23:18.570Z,1.10
2023-05-01T18:25:46.223Z,0.87
2023-05-01T18:28:16.131Z,1.10
2023-05-01T18:30:43.229Z,0.90
2023-05-01T18:33:10.397Z,0.80
2023-05-01T18:35:42.356Z,1.00
2023-05-01T18:38:10.436Z,1.90
2023-05-01T18:40:37.893Z,2.33
2023-05-01T18:43:05.097Z,2.37
2023-05-01T18:45:32.171Z,1.70
2023-05-01T18:48:03.378Z,1.83
2023-05-01T18:50:30.463Z,1.93
2023-05-01T18:52:57.501Z,1.87
2023-05-01T18:55:25.091Z,2.20
2023-05-01T18:57:52.239Z,1.73
2023-05-01T19:00:20.357Z,2.10
2023-05-01T19:02:51.530Z,2.13
2023-05-01T19:05:19.205Z,2.37
2023-05-01T19:07:46.411Z,1.90
2023-05-01T19:10:13.645Z,1.90
2023-05-01T19:12:41.869Z,1.70
2023-05-01T19:15:09.196Z,1.50
2023-05-01T19:17:36.379Z,1.37
2023-05-01T19:20:04.143Z,1.30
2023-05-01T19:22:31.203Z,1.20
2023-05-01T19:24:59.957Z,1.50
2023-05-01T19:27:27.001Z,1.30
2023-05-01T19:29:54.509Z,1.10
2023-05-01T19:32:22.974Z,1.20
2023-05-01T19:34:50.411Z,1.00
2023-05-01T19:37:17.834Z,1.00
2023-05-01T19:39:45.052Z,1.10
2023-05-01T19:42:12.108Z,1.30
2023-05-01T19:44:39.167Z,1.43
2023-05-01T19:47:06.311Z,1.40
2023-05-01T19:49:33.355Z,1.10
2023-05-01T19:52:00.423Z,1.23
2023-05-01T19:54:28.422Z,1.10
2023-05-01T19:56:55.893Z,1.20
2023-05-01T19:59:22.985Z,1.50
2023-05-01T20:01:50.149Z,1.23
2023-05-01T20:04:17.534Z,1.30
2023-05-01T20:06:44.411Z,1.27
2023-05-01T20:09:11.597Z,1.37
2023-05-01T20:11:38.174Z,1.50
2023-05-01T20:14:05.016Z,1.30
2023-05-01T20:16:31.812Z,1.33
2023-05-01T20:18:58.949Z,1.50
2023-05-01T20:21:26.349Z,1.40
2023-05-01T20:23:54.432Z,1.50
2023-05-01T20:26:21.117Z,1.60
2023-05-01T20:28:48.778Z,1.43
2023-05-01T20:31:15.922Z,1.70
2023-05-01T20:33:43.148Z,1.57
2023-05-01T20:36:10.200Z,1.90
2023-05-01T20:38:43.274Z,1.80
2023-05-01T20:41:10.199Z,1.80
2023-05-01T20:43:37.407Z,2.07
2023-05-01T20:46:04.560Z,1.70
2023-05-01T20:48:32.365Z,1.90
2023-05-01T20:50:59.423Z,2.40
2023-05-01T20:53:26.667Z,1.80
2023-05-01T20:55:53.711Z,2.10
2023-05-01T20:58:20.842Z,2.37
2023-05-01T21:00:48.089Z,6.80
2023-05-01T21:03:15.617Z,3.20
2023-05-01T21:05:42.864Z,1.83
2023-05-01T21:08:09.889Z,1.93
2023-05-01T21:10:37.020Z,1.93
2023-05-01T21:13:04.106Z,2.10
2023-05-01T21:15:32.012Z,1.90
2023-05-01T21:17:59.350Z,1.80
2023-05-01T21:20:34.739Z,2.27
2023-05-01T21:23:01.865Z,2.43
2023-05-01T21:25:29.926Z,2.40
2023-05-01T21:27:57.011Z,2.27
2023-05-01T21:30:34.986Z,2.90
2023-05-01T21:33:03.968Z,2.60
2023-05-01T21:35:31.219Z,3.20
2023-05-01T21:37:58.755Z,2.70
2023-05-01T21:40:26.896Z,3.10
2023-05-01T21:42:54.547Z,3.40
2023-05-01T21:45:21.686Z,3.40
2023-05-01T21:47:53.239Z,3.57
2023-05-01T21:50:21.188Z,3.67
2023-05-01T21:52:49.159Z,3.90
2023-05-01T21:55:25.523Z,3.43
2023-05-01T21:57:55.692Z,3.40
2023-05-01T22:00:22.734Z,3.20
2023-05-01T22:02:50.891Z,3.07
2023-05-01T22:05:20.830Z,3.57
2023-05-01T22:07:48.272Z,3.13
2023-05-01T22:10:16.942Z,2.93
2023-05-01T22:12:44.581Z,3.20
2023-05-01T22:15:13.513Z,3.20
2023-05-01T22:17:40.832Z,3.17
2023-05-01T22:20:08.977Z,2.87
2023-05-01T22:22:36.863Z,3.17
2023-05-01T22:25:04.280Z,3.40
2023-05-01T22:27:31.987Z,3.17
2023-05-01T22:29:59.233Z,3.17
2023-05-01T22:32:26.856Z,3.00
2023-05-01T22:34:53.968Z,3.40
2023-05-01T22:37:21.169Z,2.97
2023-05-01T22:39:48.228Z,3.30
2023-05-01T22:42:15.261Z,3.27
2023-05-01T22:44:42.411Z,2.77
2023-05-01T22:47:09.006Z,3.33
2023-05-01T22:49:36.334Z,3.17
2023-05-01T22:52:03.666Z,3.60
2023-05-01T22:54:30.711Z,3.23
2023-05-01T22:56:57.789Z,2.97
2023-05-01T22:59:25.997Z,3.17
2023-05-01T23:01:53.487Z,3.40
2023-05-01T23:04:21.023Z,3.70
2023-05-01T23:06:48.137Z,3.97
2023-05-01T23:09:15.597Z,3.63
2023-05-01T23:11:42.869Z,3.60
2023-05-01T23:14:10.207Z,3.90
2023-05-01T23:16:41.421Z,3.53
2023-05-01T23:19:20.000Z,3.63
2023-05-01T23:21:47.065Z,3.70
2023-05-01T23:24:20.181Z,3.80
2023-05-01T23:26:47.380Z,3.90
2023-05-01T23:29:15.956Z,4.27
2023-05-01T23:31:47.892Z,3.80
2023-05-01T23:34:19.808Z,4.20
2023-05-01T23:36:47.295Z,4.60
2023-05-01T23:39:16.397Z,4.50
2023-05-01T23:41:43.890Z,4.70
2023-05-01T23:44:11.211Z,4.80
2023-05-01T23:46:38.365Z,5.00
2023-05-01T23:49:05.633Z,4.80
2023-05-01T23:51:32.825Z,4.83
2023-05-01T23:54:00.316Z,4.60
2023-05-01T23:56:27.448Z,5.20
2023-05-01T23:58:54.513Z,5.27
